Time;durP1;ratioP1;P1;durP2;ratioP2;P2;SDS_P1;SDS_P2;PMS_P1;PMS_P2;Temp;Humidity;BMP_temperature;BMP_pressure;BME280_temperature;BME280_humidity;BME280_pressure;Samples;Min_cycle;Max_cycle;Signal;HPM_P1;HPM_P2
2022/09/14 00:01:09;;;;;;;4.57;2.20;;;;;;;;;;5035511;28;20225;-70
2022/09/14 00:03:36;;;;;;;3.80;2.10;;;;;;;;;;5035138;28;20570;-69
2022/09/14 00:06:06;;;;;;;3.63;1.97;;;;;;;;;;5035423;28;20210;-70
2022/09/14 00:08:33;;;;;;;2.63;2.03;;;;;;;;;;5035406;28;20566;-69
2022/09/14 00:11:03;;;;;;;2.57;2.30;;;;;;;;;;5035236;28;20225;-69
2022/09/14 00:13:29;;;;;;;2.40;2.10;;;;;;;;;;5035261;28;20213;-69
2022/09/14 00:15:55;;;;;;;6.70;2.37;;;;;;;;;;5035196;28;20209;-69
2022/09/14 00:18:23;;;;;;;2.47;2.07;;;;;;;;;;5035125;28;20229;-69
2022/09/14 00:20:49;;;;;;;4.13;2.37;;;;;;;;;;5035026;28;20229;-70
2022/09/14 00:23:16;;;;;;;6.53;2.83;;;;;;;;;;5035026;28;20217;-69
2022/09/14 00:25:42;;;;;;;3.17;2.20;;;;;;;;;;5035050;28;20231;-69
2022/09/14 00:28:08;;;;;;;3.23;2.30;;;;;;;;;;5035011;28;20205;-70
2022/09/14 00:30:34;;;;;;;4.33;2.70;;;;;;;;;;5034827;28;20222;-69
2022/09/14 00:33:01;;;;;;;4.17;2.90;;;;;;;;;;5034574;28;20241;-69
2022/09/14 00:35:27;;;;;;;3.13;2.70;;;;;;;;;;5034469;28;20214;-69
2022/09/14 00:37:53;;;;;;;6.27;3.23;;;;;;;;;;5034410;28;20232;-69
2022/09/14 00:40:19;;;;;;;4.90;3.00;;;;;;;;;;5034254;28;20716;-69
2022/09/14 00:42:46;;;;;;;3.60;3.03;;;;;;;;;;5034275;28;20677;-69
2022/09/14 00:45:19;;;;;;;5.40;3.03;;;;;;;;;;5034553;28;20205;-70
2022/09/14 00:47:47;;;;;;;5.27;3.10;;;;;;;;;;5034388;28;20194;-69
2022/09/14 00:50:13;;;;;;;6.30;2.67;;;;;;;;;;5034024;28;20237;-69
2022/09/14 00:52:42;;;;;;;5.20;3.07;;;;;;;;;;5034105;28;20744;-69
2022/09/14 00:55:10;;;;;;;5.27;3.17;;;;;;;;;;5032824;28;20206;-70
2022/09/14 00:57:38;;;;;;;9.57;3.20;;;;;;;;;;5034149;28;20226;-69
2022/09/14 01:00:06;;;;;;;4.73;3.27;;;;;;;;;;5034211;28;20226;-70
2022/09/14 01:02:33;;;;;;;4.13;3.03;;;;;;;;;;5034362;28;20691;-70
2022/09/14 01:04:59;;;;;;;7.87;3.47;;;;;;;;;;5034353;28;20224;-69
2022/09/14 01:07:25;;;;;;;5.70;3.37;;;;;;;;;;5032765;28;20212;-70
2022/09/14 01:10:00;;;;;;;4.63;3.40;;;;;;;;;;5033800;28;20618;-69
2022/09/14 01:12:42;;;;;;;5.97;2.93;;;;;;;;;;5034273;28;20244;-69
2022/09/14 01:15:11;;;;;;;5.80;3.20;;;;;;;;;;5034159;28;20206;-69
2022/09/14 01:17:43;;;;;;;5.87;2.80;;;;;;;;;;5034047;28;20316;-69
2022/09/14 01:20:29;;;;;;;4.07;2.97;;;;;;;;;;5034022;28;20277;-69
2022/09/14 01:23:14;;;;;;;8.10;3.47;;;;;;;;;;5033719;28;20213;-70
2022/09/14 01:25:55;;;;;;;5.10;3.23;;;;;;;;;;5032858;28;20206;-69
2022/09/14 01:28:24;;;;;;;4.30;3.17;;;;;;;;;;5033960;28;20221;-70
2022/09/14 01:30:51;;;;;;;3.23;2.93;;;;;;;;;;5033822;28;20229;-69
2022/09/14 01:33:17;;;;;;;3.93;3.07;;;;;;;;;;5033608;28;20213;-69
2022/09/14 01:35:49;;;;;;;11.20;3.93;;;;;;;;;;5033780;28;20202;-68
2022/09/14 01:38:21;;;;;;;8.00;3.33;;;;;;;;;;5033722;28;20236;-68
2022/09/14 01:40:49;;;;;;;12.03;3.80;;;;;;;;;;5033715;28;20228;-68
2022/09/14 01:43:15;;;;;;;9.00;2.43;;;;;;;;;;5033768;28;20218;-68
2022/09/14 01:45:49;;;;;;;5.73;2.63;;;;;;;;;;5033370;28;20296;-68
2022/09/14 01:48:17;;;;;;;4.17;1.90;;;;;;;;;;5032524;28;20209;-68
2022/09/14 01:50:48;;;;;;;3.63;2.00;;;;;;;;;;5033158;28;20721;-68
2022/09/14 01:53:20;;;;;;;5.50;2.50;;;;;;;;;;5033647;28;20212;-68
2022/09/14 01:55:58;;;;;;;3.73;2.20;;;;;;;;;;5033489;28;20209;-68
2022/09/14 01:58:31;;;;;;;4.40;2.77;;;;;;;;;;5033514;28;20588;-68
2022/09/14 02:01:00;;;;;;;3.20;2.40;;;;;;;;;;5032260;28;20233;-68
2022/09/14 02:03:29;;;;;;;5.53;2.33;;;;;;;;;;5034014;28;20596;-68
2022/09/14 02:05:58;;;;;;;7.03;2.90;;;;;;;;;;5033519;28;20217;-68
2022/09/14 02:08:26;;;;;;;9.50;3.30;;;;;;;;;;5036003;28;20202;-68
2022/09/14 02:10:52;;;;;;;5.03;2.83;;;;;;;;;;5037549;28;20225;-68
2022/09/14 02:13:18;;;;;;;8.97;3.17;;;;;;;;;;5038012;28;20221;-68
2022/09/14 02:15:45;;;;;;;4.97;2.87;;;;;;;;;;5038287;28;20206;-68
2022/09/14 02:18:11;;;;;;;10.33;3.70;;;;;;;;;;5037336;28;20234;-68
2022/09/14 02:20:41;;;;;;;6.53;3.73;;;;;;;;;;5038131;28;20240;-67
2022/09/14 02:23:07;;;;;;;8.00;3.30;;;;;;;;;;5038205;28;20209;-68
2022/09/14 02:25:35;;;;;;;4.87;3.23;;;;;;;;;;5036955;28;20687;-67
2022/09/14 02:28:01;;;;;;;5.57;2.97;;;;;;;;;;5037281;28;20201;-68
2022/09/14 02:30:28;;;;;;;5.57;3.10;;;;;;;;;;5036833;28;20232;-67
2022/09/14 02:33:11;;;;;;;4.20;3.50;;;;;;;;;;5036875;28;20665;-68
2022/09/14 02:35:42;;;;;;;5.33;3.20;;;;;;;;;;5037112;28;20248;-67
2022/09/14 02:38:08;;;;;;;5.10;3.40;;;;;;;;;;5036707;28;20222;-68
2022/09/14 02:40:41;;;;;;;6.30;3.60;;;;;;;;;;5036958;28;20232;-68
2022/09/14 02:43:08;;;;;;;5.37;3.90;;;;;;;;;;5037040;28;20248;-68
2022/09/14 02:45:39;;;;;;;5.50;3.43;;;;;;;;;;5036958;28;20236;-68
2022/09/14 02:48:24;;;;;;;3.93;3.50;;;;;;;;;;5036631;28;20546;-68
2022/09/14 02:50:52;;;;;;;5.70;3.47;;;;;;;;;;5036313;28;20238;-68
2022/09/14 02:53:18;;;;;;;4.37;3.33;;;;;;;;;;5036790;28;20252;-68
2022/09/14 02:55:51;;;;;;;3.97;3.27;;;;;;;;;;5036748;28;20207;-68
2022/09/14 02:58:17;;;;;;;5.30;3.13;;;;;;;;;;5036603;28;20230;-68
2022/09/14 03:00:45;;;;;;;6.67;3.27;;;;;;;;;;5036503;28;20233;-68
2022/09/14 03:03:12;;;;;;;5.57;3.30;;;;;;;;;;5036314;28;20217;-68
2022/09/14 03:05:38;;;;;;;6.03;3.20;;;;;;;;;;5036288;28;20217;-68
2022/09/14 03:08:05;;;;;;;6.20;3.17;;;;;;;;;;5036518;28;20256;-68
2022/09/14 03:10:32;;;;;;;5.73;3.47;;;;;;;;;;5036458;28;20237;-67
2022/09/14 03:13:07;;;;;;;4.27;3.23;;;;;;;;;;5036091;28;20574;-68
2022/09/14 03:15:33;;;;;;;5.40;3.47;;;;;;;;;;5036161;28;20716;-68
2022/09/14 03:18:00;;;;;;;5.40;3.43;;;;;;;;;;5035705;28;20230;-68
2022/09/14 03:20:28;;;;;;;4.93;3.20;;;;;;;;;;5035993;28;20241;-68
2022/09/14 03:22:54;;;;;;;4.73;3.33;;;;;;;;;;5035971;28;20206;-68
2022/09/14 03:25:21;;;;;;;4.23;3.20;;;;;;;;;;5036201;28;20206;-68
2022/09/14 03:27:51;;;;;;;5.13;3.27;;;;;;;;;;5036144;28;20313;-68
2022/09/14 03:30:18;;;;;;;5.70;3.27;;;;;;;;;;5036087;28;20222;-68
2022/09/14 03:32:44;;;;;;;4.60;2.80;;;;;;;;;;5035990;28;20202;-68
2022/09/14 03:35:11;;;;;;;4.73;3.87;;;;;;;;;;5035610;28;20213;-67
2022/09/14 03:37:38;;;;;;;6.30;3.37;;;;;;;;;;5035535;28;20729;-68
2022/09/14 03:40:05;;;;;;;7.07;4.20;;;;;;;;;;5035732;28;20222;-68
2022/09/14 03:42:31;;;;;;;6.10;3.97;;;;;;;;;;5035783;28;20206;-68
2022/09/14 03:44:58;;;;;;;7.70;4.43;;;;;;;;;;5035650;28;20206;-68
2022/09/14 03:47:25;;;;;;;7.37;4.37;;;;;;;;;;5035702;28;20205;-68
2022/09/14 03:49:51;;;;;;;7.50;4.40;;;;;;;;;;5035461;28;20680;-68
2022/09/14 03:52:17;;;;;;;5.80;4.13;;;;;;;;;;5035700;28;20301;-68
2022/09/14 03:54:44;;;;;;;9.33;4.07;;;;;;;;;;5035325;28;20661;-68
2022/09/14 03:57:10;;;;;;;5.17;4.13;;;;;;;;;;5035186;28;20210;-67
2022/09/14 03:59:36;;;;;;;5.90;4.07;;;;;;;;;;5035258;28;20325;-68
2022/09/14 04:02:03;;;;;;;5.73;4.50;;;;;;;;;;5035197;28;20210;-68
2022/09/14 04:04:30;;;;;;;7.33;3.97;;;;;;;;;;5035349;28;20205;-68
2022/09/14 04:06:56;;;;;;;6.33;4.20;;;;;;;;;;5035263;28;20739;-68
2022/09/14 04:09:22;;;;;;;4.93;3.87;;;;;;;;;;5035172;28;20245;-68
2022/09/14 04:11:48;;;;;;;7.93;4.53;;;;;;;;;;5035226;28;20202;-67
2022/09/14 04:14:15;;;;;;;8.73;5.80;;;;;;;;;;5035037;28;20225;-68
2022/09/14 04:16:42;;;;;;;7.23;5.70;;;;;;;;;;5034757;28;20209;-68
2022/09/14 04:19:08;;;;;;;10.33;6.00;;;;;;;;;;5034551;28;20226;-68
2022/09/14 04:21:34;;;;;;;6.67;4.93;;;;;;;;;;5034600;28;20206;-68
2022/09/14 04:24:01;;;;;;;8.77;5.67;;;;;;;;;;5034382;28;20689;-67
2022/09/14 04:26:28;;;;;;;6.37;5.40;;;;;;;;;;5034940;28;20230;-68
2022/09/14 04:28:57;;;;;;;6.67;5.37;;;;;;;;;;5034554;28;20301;-68
2022/09/14 04:31:24;;;;;;;11.97;6.00;;;;;;;;;;5034284;28;20233;-68
2022/09/14 04:33:50;;;;;;;6.67;5.20;;;;;;;;;;5034490;28;20210;-68
2022/09/14 04:36:18;;;;;;;7.53;5.27;;;;;;;;;;5034258;28;20216;-68
2022/09/14 04:38:44;;;;;;;7.63;4.50;;;;;;;;;;5034451;28;20612;-68
2022/09/14 04:41:12;;;;;;;5.53;4.63;;;;;;;;;;5034245;28;20221;-68
2022/09/14 04:43:39;;;;;;;7.53;4.63;;;;;;;;;;5033633;28;20258;-68
2022/09/14 04:46:06;;;;;;;8.40;4.37;;;;;;;;;;5033777;28;20202;-68
2022/09/14 04:48:34;;;;;;;6.23;4.60;;;;;;;;;;5034196;28;20198;-68
2022/09/14 04:51:01;;;;;;;7.77;5.33;;;;;;;;;;5033721;28;20578;-68
2022/09/14 04:53:27;;;;;;;8.70;4.80;;;;;;;;;;5034533;28;20214;-68
2022/09/14 04:55:53;;;;;;;6.53;5.77;;;;;;;;;;5033849;28;20691;-68
2022/09/14 04:58:19;;;;;;;8.83;5.17;;;;;;;;;;5033598;28;20665;-69
2022/09/14 05:00:46;;;;;;;6.83;5.53;;;;;;;;;;5033628;28;20704;-68
2022/09/14 05:03:12;;;;;;;6.97;4.87;;;;;;;;;;5033585;28;20683;-68
2022/09/14 05:05:38;;;;;;;6.53;4.67;;;;;;;;;;5033588;28;20214;-68
2022/09/14 05:08:05;;;;;;;7.03;5.07;;;;;;;;;;5034551;28;20198;-68
2022/09/14 05:10:31;;;;;;;5.77;4.47;;;;;;;;;;5033933;28;20236;-68
2022/09/14 05:12:57;;;;;;;7.30;4.47;;;;;;;;;;5033436;28;20210;-68
2022/09/14 05:15:23;;;;;;;7.57;4.50;;;;;;;;;;5033186;28;20210;-68
2022/09/14 05:17:50;;;;;;;7.03;4.77;;;;;;;;;;5033596;28;20232;-68
2022/09/14 05:20:17;;;;;;;7.03;4.60;;;;;;;;;;5033786;28;20257;-68
2022/09/14 05:22:43;;;;;;;4.37;3.97;;;;;;;;;;5033171;28;20212;-68
2022/09/14 05:25:09;;;;;;;5.67;4.50;;;;;;;;;;5032921;28;20209;-68
2022/09/14 05:27:36;;;;;;;6.13;4.43;;;;;;;;;;5032976;28;20213;-69
2022/09/14 05:30:02;;;;;;;4.77;4.10;;;;;;;;;;5033115;28;20224;-68
2022/09/14 05:32:28;;;;;;;7.07;4.53;;;;;;;;;;5032643;28;20213;-68
2022/09/14 05:34:55;;;;;;;9.10;5.90;;;;;;;;;;5032602;28;20206;-68
2022/09/14 05:37:21;;;;;;;5.93;5.30;;;;;;;;;;5032504;28;20669;-68
2022/09/14 05:39:47;;;;;;;6.40;5.80;;;;;;;;;;5032150;28;20796;-68
2022/09/14 05:42:13;;;;;;;8.23;6.13;;;;;;;;;;5033199;28;20209;-68
2022/09/14 05:44:40;;;;;;;7.53;6.17;;;;;;;;;;5033110;28;20218;-68
2022/09/14 05:47:06;;;;;;;7.10;6.50;;;;;;;;;;5032978;28;20225;-68
2022/09/14 05:49:32;;;;;;;8.07;6.10;;;;;;;;;;5033060;28;20245;-68
2022/09/14 05:51:58;;;;;;;6.57;5.90;;;;;;;;;;5033269;28;20194;-68
2022/09/14 05:54:25;;;;;;;6.53;5.93;;;;;;;;;;5033182;28;20206;-68
2022/09/14 05:56:51;;;;;;;8.70;6.73;;;;;;;;;;5032497;28;20687;-68
2022/09/14 05:59:17;;;;;;;7.43;6.80;;;;;;;;;;5032778;28;20237;-68
2022/09/14 06:01:43;;;;;;;8.37;6.97;;;;;;;;;;5032531;28;20205;-68
2022/09/14 06:04:10;;;;;;;7.90;6.57;;;;;;;;;;5032048;28;20201;-69
2022/09/14 06:06:36;;;;;;;11.27;7.33;;;;;;;;;;5031402;28;20669;-69
2022/09/14 06:09:03;;;;;;;8.63;7.03;;;;;;;;;;5031299;28;20220;-69
2022/09/14 06:11:31;;;;;;;9.73;7.30;;;;;;;;;;5032424;28;20319;-69
2022/09/14 06:13:57;;;;;;;7.57;6.80;;;;;;;;;;5031738;28;20627;-69
2022/09/14 06:16:25;;;;;;;7.93;7.00;;;;;;;;;;5031756;28;20236;-69
2022/09/14 06:18:51;;;;;;;12.33;6.50;;;;;;;;;;5032464;28;20589;-68
2022/09/14 06:21:19;;;;;;;8.67;6.47;;;;;;;;;;5032221;28;20226;-69
2022/09/14 06:23:46;;;;;;;6.20;5.60;;;;;;;;;;5032302;28;20201;-69
2022/09/14 06:26:12;;;;;;;6.97;5.77;;;;;;;;;;5033415;28;20672;-69
2022/09/14 06:28:39;;;;;;;6.17;5.60;;;;;;;;;;5032680;28;20206;-69
2022/09/14 06:31:06;;;;;;;6.27;5.60;;;;;;;;;;5032695;28;20225;-69
2022/09/14 06:33:32;;;;;;;8.07;5.53;;;;;;;;;;5032537;28;20202;-69
2022/09/14 06:35:59;;;;;;;6.33;5.73;;;;;;;;;;5032356;28;20212;-69
2022/09/14 06:38:26;;;;;;;9.63;5.77;;;;;;;;;;5032325;28;20244;-69
2022/09/14 06:40:56;;;;;;;7.80;5.67;;;;;;;;;;5032347;28;20732;-69
2022/09/14 06:43:22;;;;;;;6.73;5.43;;;;;;;;;;5032340;28;20210;-69
2022/09/14 06:45:57;;;;;;;7.17;6.20;;;;;;;;;;5032320;28;20216;-69
2022/09/14 06:48:24;;;;;;;6.80;5.57;;;;;;;;;;5032383;28;20572;-69
2022/09/14 06:50:50;;;;;;;10.37;7.10;;;;;;;;;;5032479;28;20234;-69
2022/09/14 06:53:17;;;;;;;9.47;5.60;;;;;;;;;;5032907;28;20246;-69
2022/09/14 06:55:44;;;;;;;7.07;6.37;;;;;;;;;;5036384;28;20212;-69
2022/09/14 06:58:10;;;;;;;7.73;5.50;;;;;;;;;;5036045;28;20668;-69
2022/09/14 07:00:36;;;;;;;8.40;5.73;;;;;;;;;;5035792;28;20731;-69
2022/09/14 07:03:04;;;;;;;6.70;5.33;;;;;;;;;;5036048;28;20206;-69
2022/09/14 07:05:30;;;;;;;5.83;4.70;;;;;;;;;;5036195;28;20312;-69
2022/09/14 07:07:57;;;;;;;6.67;5.93;;;;;;;;;;5035669;28;20236;-69
2022/09/14 07:10:26;;;;;;;5.53;4.80;;;;;;;;;;5035755;28;20225;-69
2022/09/14 07:12:53;;;;;;;5.23;4.73;;;;;;;;;;5035802;28;20210;-70
2022/09/14 07:15:19;;;;;;;5.33;4.43;;;;;;;;;;5035731;28;20256;-70
2022/09/14 07:17:46;;;;;;;6.00;4.30;;;;;;;;;;5036195;28;20224;-70
2022/09/14 07:20:14;;;;;;;5.47;4.43;;;;;;;;;;5036004;28;20233;-69
2022/09/14 07:22:40;;;;;;;4.57;4.17;;;;;;;;;;5035916;28;20206;-69
2022/09/14 07:25:07;;;;;;;4.77;4.20;;;;;;;;;;5035464;28;20688;-70
2022/09/14 07:27:33;;;;;;;4.97;4.40;;;;;;;;;;5035801;28;20212;-70
2022/09/14 07:29:59;;;;;;;5.73;4.03;;;;;;;;;;5035885;28;20232;-70
2022/09/14 07:32:25;;;;;;;8.17;4.10;;;;;;;;;;5035555;28;20213;-69
2022/09/14 07:34:52;;;;;;;5.73;4.43;;;;;;;;;;5035859;28;20217;-70
2022/09/14 07:37:18;;;;;;;6.63;4.20;;;;;;;;;;5035887;28;20218;-70
2022/09/14 07:39:44;;;;;;;3.90;3.60;;;;;;;;;;5035917;28;20234;-69
2022/09/14 07:42:10;;;;;;;4.07;3.77;;;;;;;;;;5036125;28;20210;-70
2022/09/14 07:44:37;;;;;;;5.13;3.63;;;;;;;;;;5035617;28;20213;-70
2022/09/14 07:47:03;;;;;;;4.93;3.30;;;;;;;;;;5035462;28;20217;-69
2022/09/14 07:49:29;;;;;;;4.07;3.70;;;;;;;;;;5034879;28;20598;-69
2022/09/14 07:51:56;;;;;;;4.67;3.60;;;;;;;;;;5035582;28;20264;-70
2022/09/14 07:54:22;;;;;;;6.10;3.47;;;;;;;;;;5035198;28;20692;-69
2022/09/14 07:56:49;;;;;;;4.60;3.37;;;;;;;;;;5035258;28;20214;-69
2022/09/14 07:59:16;;;;;;;4.20;3.10;;;;;;;;;;5034514;28;20226;-70
2022/09/14 08:01:42;;;;;;;4.60;3.50;;;;;;;;;;5034919;28;20213;-69
2022/09/14 08:04:08;;;;;;;6.73;3.60;;;;;;;;;;5035077;28;20214;-70
2022/09/14 08:06:35;;;;;;;4.93;3.30;;;;;;;;;;5033495;28;20699;-69
2022/09/14 08:09:05;;;;;;;7.07;3.23;;;;;;;;;;5035009;28;20294;-70
2022/09/14 08:11:33;;;;;;;5.90;3.43;;;;;;;;;;5035074;28;20242;-70
2022/09/14 08:14:00;;;;;;;3.87;3.17;;;;;;;;;;5034974;28;20297;-70
2022/09/14 08:16:27;;;;;;;3.23;2.80;;;;;;;;;;5035084;28;20229;-70
2022/09/14 08:19:01;;;;;;;4.43;3.47;;;;;;;;;;5034762;28;20276;-70
2022/09/14 08:21:28;;;;;;;3.80;3.50;;;;;;;;;;5034578;28;20204;-71
2022/09/14 08:23:56;;;;;;;3.40;3.00;;;;;;;;;;5034575;28;20202;-70
2022/09/14 08:26:23;;;;;;;5.07;3.50;;;;;;;;;;5034453;28;20206;-70
2022/09/14 08:28:50;;;;;;;5.07;3.07;;;;;;;;;;5034672;28;20206;-70
2022/09/14 08:31:20;;;;;;;4.40;3.40;;;;;;;;;;5034520;28;20229;-70
2022/09/14 08:33:50;;;;;;;4.20;2.70;;;;;;;;;;5034466;28;20214;-70
2022/09/14 08:36:17;;;;;;;5.33;2.90;;;;;;;;;;5034409;28;20205;-70
2022/09/14 08:38:43;;;;;;;8.20;3.10;;;;;;;;;;5033708;28;20665;-70
2022/09/14 08:41:19;;;;;;;3.60;2.87;;;;;;;;;;5033705;28;20700;-70
2022/09/14 08:43:45;;;;;;;3.07;2.57;;;;;;;;;;5034363;28;20259;-70
2022/09/14 08:46:20;;;;;;;3.77;2.67;;;;;;;;;;5033812;28;20209;-70
2022/09/14 08:48:48;;;;;;;3.60;2.60;;;;;;;;;;5033882;28;20208;-70
2022/09/14 08:51:15;;;;;;;3.80;2.83;;;;;;;;;;5033984;28;20240;-70
2022/09/14 08:53:42;;;;;;;4.20;2.87;;;;;;;;;;5034465;28;20213;-70
2022/09/14 08:56:12;;;;;;;3.37;2.63;;;;;;;;;;5034841;28;20206;-70
2022/09/14 08:58:57;;;;;;;4.97;2.80;;;;;;;;;;5032776;28;20236;-70
2022/09/14 09:01:23;;;;;;;5.20;2.57;;;;;;;;;;5033762;28;20230;-70
2022/09/14 09:03:50;;;;;;;5.25;2.92;;;;;;;;;;5034171;28;20213;-71
2022/09/14 09:06:26;;;;;;;4.32;2.45;;;;;;;;;;5034141;28;20210;-70
2022/09/14 09:09:01;;;;;;;6.32;2.72;;;;;;;;;;5034182;28;20190;-71
2022/09/14 09:11:30;;;;;;;3.33;2.25;;;;;;;;;;5033683;28;20634;-70
2022/09/14 09:13:56;;;;;;;3.78;2.38;;;;;;;;;;5032799;28;20209;-71
2022/09/14 09:16:24;;;;;;;5.30;2.20;;;;;;;;;;5032181;28;20202;-71
2022/09/14 09:18:59;;;;;;;3.50;2.30;;;;;;;;;;5033512;28;20665;-70
2022/09/14 09:21:28;;;;;;;4.80;2.22;;;;;;;;;;5034044;28;20190;-70
2022/09/14 09:23:55;;;;;;;3.50;2.10;;;;;;;;;;5033769;28;20217;-70
2022/09/14 09:26:28;;;;;;;2.65;2.17;;;;;;;;;;5033683;28;20206;-71
2022/09/14 09:28:57;;;;;;;3.30;2.22;;;;;;;;;;5033776;28;20548;-70
2022/09/14 09:31:27;;;;;;;2.22;2.03;;;;;;;;;;5033588;28;20228;-71
2022/09/14 09:33:53;;;;;;;4.28;2.17;;;;;;;;;;5033481;28;20652;-71
2022/09/14 09:36:20;;;;;;;5.80;2.50;;;;;;;;;;5033593;28;20209;-70
2022/09/14 09:38:46;;;;;;;3.83;2.30;;;;;;;;;;5033715;28;20212;-71
2022/09/14 09:41:15;;;;;;;3.60;2.40;;;;;;;;;;5033032;28;20238;-70
2022/09/14 09:44:09;;;;;;;3.90;2.30;;;;;;;;;;5033082;28;20206;-70
2022/09/14 09:46:38;;;;;;;2.67;2.10;;;;;;;;;;5030773;28;20210;-71
2022/09/14 09:49:14;;;;;;;6.53;1.90;;;;;;;;;;5032873;28;20205;-70
2022/09/14 09:51:40;;;;;;;3.10;1.90;;;;;;;;;;5033134;28;20258;-71
2022/09/14 09:54:13;;;;;;;4.43;1.92;;;;;;;;;;5033093;28;20570;-71
2022/09/14 09:56:41;;;;;;;4.40;2.35;;;;;;;;;;5033610;28;20297;-71
2022/09/14 09:59:22;;;;;;;4.32;1.80;;;;;;;;;;5033082;28;20217;-71
2022/09/14 10:01:48;;;;;;;3.90;2.10;;;;;;;;;;5032761;28;20556;-71
2022/09/14 10:04:14;;;;;;;2.28;1.95;;;;;;;;;;5033198;28;20206;-71
2022/09/14 10:06:42;;;;;;;4.68;1.90;;;;;;;;;;5033012;28;20612;-71
2022/09/14 10:09:12;;;;;;;3.58;1.83;;;;;;;;;;5032719;28;20210;-71
2022/09/14 10:11:39;;;;;;;5.15;1.90;;;;;;;;;;5032936;28;20205;-71
2022/09/14 10:14:06;;;;;;;5.88;1.95;;;;;;;;;;5032710;28;20217;-71
2022/09/14 10:16:35;;;;;;;4.05;2.20;;;;;;;;;;5032498;28;20301;-71
2022/09/14 10:19:03;;;;;;;3.22;2.03;;;;;;;;;;5032947;28;20213;-70
2022/09/14 10:21:30;;;;;;;3.15;2.10;;;;;;;;;;5032454;28;20234;-71
2022/09/14 10:24:15;;;;;;;3.70;1.77;;;;;;;;;;5032767;28;20262;-71
2022/09/14 10:26:42;;;;;;;2.85;1.75;;;;;;;;;;5032525;28;20190;-71
2022/09/14 10:29:29;;;;;;;2.20;2.00;;;;;;;;;;5035073;28;20304;-71
2022/09/14 10:31:58;;;;;;;3.13;2.05;;;;;;;;;;5036189;28;20221;-70
2022/09/14 10:34:25;;;;;;;2.67;1.90;;;;;;;;;;5037062;28;20641;-70
2022/09/14 10:37:05;;;;;;;4.13;2.00;;;;;;;;;;5037424;28;20214;-71
2022/09/14 10:39:37;;;;;;;2.20;1.83;;;;;;;;;;5036587;28;20229;-71
2022/09/14 10:42:33;;;;;;;2.08;1.80;;;;;;;;;;5036861;28;20205;-71
2022/09/14 10:45:16;;;;;;;3.25;2.00;;;;;;;;;;5023605;28;20574;-71
2022/09/14 10:48:06;;;;;;;2.92;1.95;;;;;;;;;;5035460;28;20213;-71
2022/09/14 10:50:33;;;;;;;3.45;2.00;;;;;;;;;;5036133;28;20229;-71
2022/09/14 10:53:10;;;;;;;3.33;1.80;;;;;;;;;;5037737;28;20206;-70
2022/09/14 10:55:55;;;;;;;3.50;1.77;;;;;;;;;;5036542;28;20201;-70
2022/09/14 10:58:23;;;;;;;3.50;1.75;;;;;;;;;;5036705;28;20216;-71
2022/09/14 11:01:07;;;;;;;6.47;2.00;;;;;;;;;;5036176;28;20230;-71
2022/09/14 11:03:36;;;;;;;2.58;1.73;;;;;;;;;;5036230;28;20213;-70
2022/09/14 11:06:22;;;;;;;3.38;1.85;;;;;;;;;;5036202;28;20206;-70
2022/09/14 11:08:53;;;;;;;3.92;2.03;;;;;;;;;;5036293;28;20202;-71
2022/09/14 11:11:22;;;;;;;5.35;1.77;;;;;;;;;;5035902;28;20680;-71
2022/09/14 11:13:51;;;;;;;3.78;1.80;;;;;;;;;;5035820;28;20205;-71
2022/09/14 11:16:18;;;;;;;3.63;2.20;;;;;;;;;;5036122;28;20213;-71
2022/09/14 11:18:44;;;;;;;3.95;1.60;;;;;;;;;;5036495;28;20201;-71
2022/09/14 11:21:19;;;;;;;3.28;1.88;;;;;;;;;;5035673;28;20237;-71
2022/09/14 11:23:54;;;;;;;4.15;1.92;;;;;;;;;;5035772;28;20641;-71
2022/09/14 11:26:30;;;;;;;3.70;1.88;;;;;;;;;;5035744;28;20212;-71
2022/09/14 11:29:11;;;;;;;4.22;1.73;;;;;;;;;;5036006;28;20296;-71
2022/09/14 11:31:40;;;;;;;3.58;1.80;;;;;;;;;;5034830;28;20208;-71
2022/09/14 11:34:24;;;;;;;4.50;1.90;;;;;;;;;;5035302;28;20206;-71
2022/09/14 11:36:54;;;;;;;2.75;1.60;;;;;;;;;;5036114;28;20217;-71
2022/09/14 11:39:29;;;;;;;2.53;1.80;;;;;;;;;;5035689;28;20230;-71
2022/09/14 11:41:55;;;;;;;3.30;1.63;;;;;;;;;;5035405;28;20205;-71
2022/09/14 11:44:23;;;;;;;2.67;2.00;;;;;;;;;;5035555;28;20217;-71
2022/09/14 11:46:58;;;;;;;2.90;1.92;;;;;;;;;;5035628;28;20573;-71
2022/09/14 11:49:51;;;;;;;3.88;1.75;;;;;;;;;;5035215;28;20233;-71
2022/09/14 11:52:21;;;;;;;3.33;1.70;;;;;;;;;;5012209;28;20259;-71
2022/09/14 11:54:48;;;;;;;3.13;1.70;;;;;;;;;;5035005;28;20225;-71
2022/09/14 11:57:17;;;;;;;2.95;1.60;;;;;;;;;;5033909;28;20206;-71
2022/09/14 11:59:47;;;;;;;2.38;1.65;;;;;;;;;;5035302;28;20353;-71
2022/09/14 12:02:22;;;;;;;2.83;1.83;;;;;;;;;;5035227;28;20212;-71
2022/09/14 12:05:07;;;;;;;1.85;1.70;;;;;;;;;;5035278;28;20296;-71
2022/09/14 12:07:39;;;;;;;3.45;1.90;;;;;;;;;;5035204;28;20237;-71
2022/09/14 12:10:14;;;;;;;3.80;1.90;;;;;;;;;;5034876;28;20222;-71
2022/09/14 12:12:52;;;;;;;3.28;1.90;;;;;;;;;;5034742;28;20209;-71
2022/09/14 12:15:24;;;;;;;4.57;1.80;;;;;;;;;;5034840;28;20208;-70
2022/09/14 12:17:52;;;;;;;3.83;1.80;;;;;;;;;;5034667;28;20221;-70
2022/09/14 12:20:29;;;;;;;4.88;1.52;;;;;;;;;;5035088;28;20320;-70
2022/09/14 12:23:04;;;;;;;2.88;1.55;;;;;;;;;;5034725;28;20215;-70
2022/09/14 12:25:31;;;;;;;4.03;1.90;;;;;;;;;;5034726;28;20583;-70
2022/09/14 12:27:57;;;;;;;4.07;1.90;;;;;;;;;;5034000;28;20513;-70
2022/09/14 12:30:33;;;;;;;1.60;1.50;;;;;;;;;;5034478;28;20245;-71
2022/09/14 12:33:00;;;;;;;4.35;1.83;;;;;;;;;;5034269;28;20210;-70
2022/09/14 12:35:32;;;;;;;4.53;1.85;;;;;;;;;;5034178;28;20209;-70
2022/09/14 12:37:58;;;;;;;3.17;1.73;;;;;;;;;;5033993;28;20210;-70
2022/09/14 12:40:35;;;;;;;5.68;1.70;;;;;;;;;;5034298;28;20234;-70
2022/09/14 12:43:20;;;;;;;3.22;1.88;;;;;;;;;;5034557;28;20320;-70
2022/09/14 12:45:50;;;;;;;4.28;1.90;;;;;;;;;;5033807;28;20677;-70
2022/09/14 12:48:35;;;;;;;5.10;2.10;;;;;;;;;;5034276;28;20222;-70
2022/09/14 12:51:02;;;;;;;3.72;2.40;;;;;;;;;;5033155;28;20248;-70
2022/09/14 12:53:31;;;;;;;4.75;2.10;;;;;;;;;;5033474;28;20216;-70
2022/09/14 12:56:03;;;;;;;5.43;2.28;;;;;;;;;;5034287;28;20307;-70
2022/09/14 12:58:38;;;;;;;4.43;2.10;;;;;;;;;;5034080;28;20280;-70
2022/09/14 13:01:18;;;;;;;4.53;2.30;;;;;;;;;;5034065;28;20233;-70
2022/09/14 13:03:49;;;;;;;4.43;2.30;;;;;;;;;;5033807;28;20637;-70
2022/09/14 13:06:16;;;;;;;4.73;2.43;;;;;;;;;;5032768;28;20209;-70
2022/09/14 13:08:51;;;;;;;3.50;2.60;;;;;;;;;;5034167;28;20331;-70
2022/09/14 13:11:19;;;;;;;3.30;2.37;;;;;;;;;;5034021;28;20229;-70
2022/09/14 13:13:45;;;;;;;5.90;2.10;;;;;;;;;;5033654;28;20206;-70
2022/09/14 13:16:14;;;;;;;3.70;2.47;;;;;;;;;;5033806;28;20214;-70
2022/09/14 13:18:41;;;;;;;4.87;2.23;;;;;;;;;;5033603;28;20217;-70
2022/09/14 13:21:23;;;;;;;4.40;2.40;;;;;;;;;;5033344;28;20244;-70
2022/09/14 13:23:50;;;;;;;3.37;1.93;;;;;;;;;;5033773;28;20240;-70
2022/09/14 13:26:19;;;;;;;5.13;2.17;;;;;;;;;;5033689;28;20229;-70
2022/09/14 13:28:46;;;;;;;4.27;2.33;;;;;;;;;;5034030;28;20289;-70
2022/09/14 13:31:16;;;;;;;2.10;1.93;;;;;;;;;;5033422;28;20234;-71
2022/09/14 13:33:50;;;;;;;3.00;1.80;;;;;;;;;;5033763;28;20209;-70
2022/09/14 13:36:18;;;;;;;2.70;1.90;;;;;;;;;;5033674;28;20205;-70
2022/09/14 13:38:44;;;;;;;4.20;1.80;;;;;;;;;;5033694;28;20206;-70
2022/09/14 13:41:12;;;;;;;5.30;2.37;;;;;;;;;;5033096;28;20237;-70
2022/09/14 13:43:39;;;;;;;3.97;2.50;;;;;;;;;;5033209;28;20206;-70
2022/09/14 13:46:07;;;;;;;6.00;2.10;;;;;;;;;;5033076;28;20206;-70
2022/09/14 13:48:33;;;;;;;3.77;2.10;;;;;;;;;;5033376;28;20283;-70
2022/09/14 13:50:59;;;;;;;3.20;1.97;;;;;;;;;;5032794;28;20709;-70
2022/09/14 13:53:39;;;;;;;3.05;2.00;;;;;;;;;;5032328;28;20428;-70
2022/09/14 13:56:17;;;;;;;2.33;1.90;;;;;;;;;;5033720;28;20220;-70
2022/09/14 13:58:44;;;;;;;3.33;1.70;;;;;;;;;;5033259;28;20323;-70
2022/09/14 14:01:10;;;;;;;2.83;1.60;;;;;;;;;;5032714;28;20234;-70
2022/09/14 14:03:49;;;;;;;1.90;1.40;;;;;;;;;;5031792;28;20757;-70
2022/09/14 14:06:19;;;;;;;4.27;1.60;;;;;;;;;;5032957;28;20213;-70
2022/09/14 14:08:51;;;;;;;2.20;1.60;;;;;;;;;;5033170;28;20210;-70
2022/09/14 14:11:26;;;;;;;4.17;1.70;;;;;;;;;;5032936;28;20226;-70
2022/09/14 14:13:52;;;;;;;2.87;1.90;;;;;;;;;;5032734;28;20225;-70
2022/09/14 14:16:19;;;;;;;2.27;1.60;;;;;;;;;;5032431;28;20569;-70
2022/09/14 14:18:53;;;;;;;1.80;1.70;;;;;;;;;;5032955;28;20209;-70
2022/09/14 14:21:23;;;;;;;2.17;1.60;;;;;;;;;;5032484;28;20244;-70
2022/09/14 14:23:51;;;;;;;1.63;1.53;;;;;;;;;;5032787;28;20267;-70
2022/09/14 14:26:20;;;;;;;2.20;1.60;;;;;;;;;;5032689;28;20760;-70
2022/09/14 14:28:46;;;;;;;1.93;1.30;;;;;;;;;;5032543;28;20205;-70
2022/09/14 14:31:14;;;;;;;2.03;1.50;;;;;;;;;;5032862;28;20226;-70
2022/09/14 14:33:44;;;;;;;1.87;1.40;;;;;;;;;;5032874;28;20208;-71
2022/09/14 14:36:10;;;;;;;1.83;1.10;;;;;;;;;;5032646;28;20213;-70
2022/09/14 14:38:37;;;;;;;1.30;1.20;;;;;;;;;;5032499;28;20213;-71
2022/09/14 14:41:03;;;;;;;2.33;1.40;;;;;;;;;;5032261;28;20707;-71
2022/09/14 14:43:30;;;;;;;2.23;1.10;;;;;;;;;;5032804;28;20202;-70
2022/09/14 14:45:57;;;;;;;1.30;1.20;;;;;;;;;;5032781;28;20205;-71
2022/09/14 14:48:25;;;;;;;1.33;1.23;;;;;;;;;;5032314;28;20206;-71
2022/09/14 14:50:51;;;;;;;2.93;1.30;;;;;;;;;;5032405;28;20234;-71
2022/09/14 14:53:17;;;;;;;1.60;1.03;;;;;;;;;;5032362;28;20216;-71
2022/09/14 14:55:44;;;;;;;4.10;1.20;;;;;;;;;;5033281;28;20210;-71